PRABR SBGW-SBMT
Flight info
| Callsign | PRABR |
|---|---|
| Flight time | 1h 11m |
| Altitude | 5500 |
| Route | REA REH |
| Aircraft | EC45/L-SFG/C |
Departure
| Time | 2026-05-04 19:10 |
|---|---|
| Airport | Edu Chaves Field (SBGW) |
Arrival
| Time | 2026-05-04 20:22 |
|---|---|
| Airport | Campo de Marte Airport (SBMT) |
| Time | Latitude | Longitude | Altitude | Speed | Heading |
|---|---|---|---|---|---|
| 2026-05-04 19:00 | -22.79510 | -45.20615 | 1757 ft | 0 kts | 276° |
| 2026-05-04 19:08 | -22.79510 | -45.20616 | 1757 ft | 1 kts | 274° |
| 2026-05-04 19:09 | -22.79508 | -45.20620 | 1759 ft | 1 kts | 185° |
| 2026-05-04 19:09 | -22.79515 | -45.20621 | 1758 ft | 3 kts | 92° |
| 2026-05-04 19:09 | -22.79513 | -45.20597 | 1761 ft | 3 kts | 96° |
| 2026-05-04 19:09 | -22.79540 | -45.20576 | 1760 ft | 5 kts | 183° |
| 2026-05-04 19:10 | -22.79719 | -45.20588 | 1850 ft | 58 kts | 184° |
| 2026-05-04 19:10 | -22.80320 | -45.20632 | 2035 ft | 104 kts | 183° |
| 2026-05-04 19:10 | -22.81068 | -45.20681 | 2399 ft | 108 kts | 182° |
| 2026-05-04 19:10 | -22.81772 | -45.20849 | 2841 ft | 105 kts | 198° |
| 2026-05-04 19:11 | -22.82443 | -45.21260 | 3059 ft | 111 kts | 212° |
| 2026-05-04 19:11 | -22.82971 | -45.21806 | 3375 ft | 99 kts | 228° |
| 2026-05-04 19:11 | -22.83306 | -45.22407 | 3726 ft | 89 kts | 247° |
| 2026-05-04 19:11 | -22.83429 | -45.23037 | 4240 ft | 82 kts | 271° |
| 2026-05-04 19:12 | -22.83328 | -45.23626 | 4686 ft | 80 kts | 294° |
| 2026-05-04 19:12 | -22.82642 | -45.24489 | 5017 ft | 74 kts | 320° |
| 2026-05-04 19:12 | -22.82190 | -45.24746 | 5009 ft | 75 kts | 334° |
| 2026-05-04 19:13 | -22.81679 | -45.24878 | 5005 ft | 75 kts | 348° |
| 2026-05-04 19:13 | -22.81158 | -45.24880 | 5006 ft | 75 kts | 358° |
| 2026-05-04 19:13 | -22.80647 | -45.24764 | 5003 ft | 76 kts | 12° |
| 2026-05-04 19:13 | -22.80171 | -45.24518 | 5012 ft | 76 kts | 21° |
| 2026-05-04 19:14 | -22.79756 | -45.24165 | 5012 ft | 76 kts | 36° |
| 2026-05-04 19:14 | -22.79413 | -45.23719 | 5006 ft | 79 kts | 49° |
| 2026-05-04 19:14 | -22.79102 | -45.23226 | 5006 ft | 78 kts | 47° |
| 2026-05-04 19:14 | -22.78783 | -45.22758 | 5001 ft | 78 kts | 47° |
| 2026-05-04 19:15 | -22.78449 | -45.22289 | 5012 ft | 78 kts | 45° |
| 2026-05-04 19:15 | -22.78104 | -45.21833 | 5008 ft | 77 kts | 43° |
| 2026-05-04 19:15 | -22.77819 | -45.21329 | 5009 ft | 84 kts | 68° |
| 2026-05-04 19:15 | -22.77810 | -45.20705 | 5005 ft | 86 kts | 94° |
| 2026-05-04 19:16 | -22.78177 | -45.20187 | 5009 ft | 89 kts | 144° |
| 2026-05-04 19:16 | -22.78768 | -45.20098 | 5014 ft | 87 kts | 191° |
| 2026-05-04 19:16 | -22.79315 | -45.20325 | 5004 ft | 82 kts | 207° |
| 2026-05-04 19:16 | -22.79830 | -45.20595 | 5011 ft | 82 kts | 206° |
| 2026-05-04 19:17 | -22.80351 | -45.20846 | 5015 ft | 82 kts | 203° |
| 2026-05-04 19:17 | -22.80885 | -45.21089 | 4996 ft | 88 kts | 207° |
| 2026-05-04 19:17 | -22.81501 | -45.21377 | 5008 ft | 97 kts | 203° |
| 2026-05-04 19:17 | -22.82126 | -45.21646 | 5020 ft | 96 kts | 199° |
| 2026-05-04 19:18 | -22.82747 | -45.21901 | 5006 ft | 96 kts | 201° |
| 2026-05-04 19:18 | -22.83360 | -45.22160 | 5000 ft | 96 kts | 202° |
| 2026-05-04 19:18 | -22.83988 | -45.22425 | 5011 ft | 96 kts | 200° |
| 2026-05-04 19:18 | -22.84613 | -45.22687 | 5014 ft | 96 kts | 201° |
| 2026-05-04 19:19 | -22.85175 | -45.23038 | 5005 ft | 95 kts | 224° |
| 2026-05-04 19:19 | -22.85599 | -45.23573 | 5009 ft | 92 kts | 233° |
| 2026-05-04 19:19 | -22.85989 | -45.24127 | 5007 ft | 91 kts | 233° |
| 2026-05-04 19:19 | -22.86366 | -45.24682 | 5007 ft | 92 kts | 234° |
| 2026-05-04 19:20 | -22.86746 | -45.25238 | 5007 ft | 92 kts | 234° |
| 2026-05-04 19:20 | -22.87130 | -45.25808 | 5008 ft | 93 kts | 234° |
| 2026-05-04 19:20 | -22.87503 | -45.26367 | 5009 ft | 92 kts | 235° |
| 2026-05-04 19:20 | -22.87882 | -45.26937 | 5011 ft | 93 kts | 234° |
| 2026-05-04 19:21 | -22.88257 | -45.27494 | 5010 ft | 92 kts | 232° |
| 2026-05-04 19:21 | -22.88635 | -45.28068 | 5008 ft | 93 kts | 232° |
| 2026-05-04 19:21 | -22.89012 | -45.28629 | 5007 ft | 92 kts | 236° |
| 2026-05-04 19:21 | -22.89386 | -45.29191 | 5008 ft | 93 kts | 233° |
| 2026-05-04 19:22 | -22.89767 | -45.29767 | 5013 ft | 94 kts | 233° |
| 2026-05-04 19:22 | -22.90137 | -45.30341 | 5007 ft | 93 kts | 237° |
| 2026-05-04 19:22 | -22.90470 | -45.30942 | 5004 ft | 93 kts | 239° |
| 2026-05-04 19:22 | -22.90792 | -45.31544 | 5008 ft | 93 kts | 240° |
| 2026-05-04 19:23 | -22.91116 | -45.32142 | 5003 ft | 92 kts | 240° |
| 2026-05-04 19:23 | -22.91439 | -45.32738 | 4996 ft | 91 kts | 240° |
| 2026-05-04 19:23 | -22.91761 | -45.33345 | 4992 ft | 92 kts | 240° |
| 2026-05-04 19:23 | -22.92084 | -45.33950 | 4998 ft | 91 kts | 240° |
| 2026-05-04 19:24 | -22.92404 | -45.34552 | 4999 ft | 92 kts | 238° |
| 2026-05-04 19:24 | -22.92723 | -45.35143 | 4981 ft | 92 kts | 239° |
| 2026-05-04 19:24 | -22.93046 | -45.35745 | 4978 ft | 92 kts | 240° |
| 2026-05-04 19:24 | -22.93360 | -45.36349 | 4976 ft | 92 kts | 240° |
| 2026-05-04 19:25 | -22.93677 | -45.36963 | 4979 ft | 93 kts | 242° |
| 2026-05-04 19:25 | -22.93995 | -45.37568 | 4988 ft | 92 kts | 239° |
| 2026-05-04 19:25 | -22.94313 | -45.38174 | 4976 ft | 92 kts | 242° |
| 2026-05-04 19:25 | -22.94626 | -45.38774 | 4978 ft | 92 kts | 241° |
| 2026-05-04 19:26 | -22.94941 | -45.39374 | 4988 ft | 91 kts | 238° |
| 2026-05-04 19:26 | -22.95257 | -45.39981 | 4976 ft | 93 kts | 241° |
| 2026-05-04 19:26 | -22.95572 | -45.40585 | 4985 ft | 93 kts | 240° |
| 2026-05-04 19:26 | -22.95891 | -45.41196 | 4975 ft | 96 kts | 242° |
| 2026-05-04 19:27 | -22.96224 | -45.41826 | 4986 ft | 96 kts | 239° |
| 2026-05-04 19:27 | -22.96555 | -45.42468 | 4988 ft | 98 kts | 240° |
| 2026-05-04 19:27 | -22.96895 | -45.43106 | 4989 ft | 96 kts | 238° |
| 2026-05-04 19:27 | -22.97227 | -45.43737 | 4983 ft | 96 kts | 239° |
| 2026-05-04 19:28 | -22.97556 | -45.44378 | 4983 ft | 98 kts | 242° |
| 2026-05-04 19:28 | -22.97886 | -45.45014 | 4982 ft | 98 kts | 240° |
| 2026-05-04 19:28 | -22.98227 | -45.45664 | 4992 ft | 98 kts | 239° |
| 2026-05-04 19:28 | -22.98562 | -45.46302 | 4987 ft | 97 kts | 239° |
| 2026-05-04 19:29 | -22.98891 | -45.46934 | 4977 ft | 97 kts | 240° |
| 2026-05-04 19:29 | -22.99221 | -45.47565 | 4986 ft | 96 kts | 239° |
| 2026-05-04 19:29 | -22.99551 | -45.48197 | 4979 ft | 96 kts | 240° |
| 2026-05-04 19:29 | -22.99883 | -45.48834 | 4985 ft | 96 kts | 239° |
| 2026-05-04 19:30 | -23.00216 | -45.49471 | 4984 ft | 97 kts | 239° |
| 2026-05-04 19:30 | -23.00438 | -45.49898 | 4981 ft | 96 kts | 240° |
| 2026-05-04 19:30 | -23.00770 | -45.50535 | 4983 ft | 97 kts | 240° |
| 2026-05-04 19:30 | -23.01102 | -45.51170 | 4989 ft | 96 kts | 240° |
| 2026-05-04 19:31 | -23.01425 | -45.51788 | 4989 ft | 96 kts | 239° |
| 2026-05-04 19:31 | -23.01765 | -45.52440 | 4985 ft | 96 kts | 240° |
| 2026-05-04 19:31 | -23.02087 | -45.53060 | 4984 ft | 96 kts | 240° |
| 2026-05-04 19:31 | -23.02418 | -45.53705 | 4984 ft | 97 kts | 242° |
| 2026-05-04 19:32 | -23.02747 | -45.54350 | 4977 ft | 96 kts | 240° |
| 2026-05-04 19:32 | -23.03075 | -45.54989 | 4985 ft | 97 kts | 240° |
| 2026-05-04 19:32 | -23.03401 | -45.55626 | 4978 ft | 97 kts | 240° |
| 2026-05-04 19:32 | -23.03730 | -45.56269 | 4987 ft | 96 kts | 240° |
| 2026-05-04 19:33 | -23.04054 | -45.56903 | 4985 ft | 96 kts | 240° |
| 2026-05-04 19:33 | -23.04377 | -45.57536 | 4982 ft | 96 kts | 241° |
| 2026-05-04 19:33 | -23.04700 | -45.58169 | 4986 ft | 96 kts | 240° |
| 2026-05-04 19:33 | -23.05025 | -45.58809 | 4979 ft | 96 kts | 241° |
| 2026-05-04 19:34 | -23.05346 | -45.59441 | 4985 ft | 96 kts | 240° |
| 2026-05-04 19:34 | -23.05669 | -45.60075 | 4983 ft | 96 kts | 241° |
| 2026-05-04 19:34 | -23.05993 | -45.60713 | 4981 ft | 96 kts | 241° |
| 2026-05-04 19:34 | -23.06267 | -45.61379 | 4993 ft | 97 kts | 254° |
| 2026-05-04 19:35 | -23.06373 | -45.62092 | 4982 ft | 94 kts | 261° |
| 2026-05-04 19:35 | -23.06434 | -45.62803 | 4989 ft | 95 kts | 263° |
| 2026-05-04 19:35 | -23.06492 | -45.63512 | 4975 ft | 94 kts | 265° |
| 2026-05-04 19:35 | -23.06539 | -45.64221 | 4986 ft | 94 kts | 264° |
| 2026-05-04 19:36 | -23.06586 | -45.64939 | 4978 ft | 95 kts | 265° |
| 2026-05-04 19:36 | -23.06634 | -45.65650 | 4986 ft | 95 kts | 264° |
| 2026-05-04 19:36 | -23.06682 | -45.66366 | 4985 ft | 94 kts | 264° |
| 2026-05-04 19:36 | -23.06730 | -45.67073 | 4965 ft | 93 kts | 263° |
| 2026-05-04 19:37 | -23.06784 | -45.67773 | 4865 ft | 92 kts | 262° |
| 2026-05-04 19:37 | -23.06840 | -45.68467 | 4741 ft | 92 kts | 263° |
| 2026-05-04 19:37 | -23.06884 | -45.69167 | 4599 ft | 93 kts | 265° |
| 2026-05-04 19:37 | -23.06929 | -45.69865 | 4488 ft | 93 kts | 263° |
| 2026-05-04 19:38 | -23.06975 | -45.70576 | 4373 ft | 92 kts | 263° |
| 2026-05-04 19:38 | -23.07021 | -45.71272 | 4244 ft | 94 kts | 264° |
| 2026-05-04 19:38 | -23.07066 | -45.71973 | 4120 ft | 93 kts | 263° |
| 2026-05-04 19:38 | -23.07113 | -45.72676 | 3996 ft | 94 kts | 263° |
| 2026-05-04 19:39 | -23.07157 | -45.73382 | 3999 ft | 94 kts | 264° |
| 2026-05-04 19:39 | -23.07203 | -45.74093 | 3987 ft | 94 kts | 265° |
| 2026-05-04 19:39 | -23.07246 | -45.74803 | 4002 ft | 94 kts | 263° |
| 2026-05-04 19:39 | -23.07295 | -45.75507 | 3987 ft | 94 kts | 264° |
| 2026-05-04 19:40 | -23.07339 | -45.76224 | 4006 ft | 94 kts | 263° |
| 2026-05-04 19:40 | -23.07387 | -45.76948 | 4001 ft | 93 kts | 263° |
| 2026-05-04 19:40 | -23.07433 | -45.77651 | 3993 ft | 95 kts | 265° |
| 2026-05-04 19:40 | -23.07475 | -45.78373 | 3999 ft | 95 kts | 265° |
| 2026-05-04 19:41 | -23.07519 | -45.79086 | 3998 ft | 94 kts | 264° |
| 2026-05-04 19:41 | -23.07566 | -45.79787 | 4000 ft | 94 kts | 263° |
| 2026-05-04 19:41 | -23.07614 | -45.80500 | 3995 ft | 94 kts | 264° |
| 2026-05-04 19:41 | -23.07658 | -45.81211 | 4007 ft | 94 kts | 263° |
| 2026-05-04 19:42 | -23.07706 | -45.81920 | 3999 ft | 94 kts | 263° |
| 2026-05-04 19:42 | -23.07753 | -45.82627 | 3995 ft | 94 kts | 265° |
| 2026-05-04 19:42 | -23.07796 | -45.83342 | 4001 ft | 95 kts | 265° |
| 2026-05-04 19:42 | -23.07839 | -45.84056 | 4002 ft | 95 kts | 265° |
| 2026-05-04 19:43 | -23.07880 | -45.84769 | 4003 ft | 95 kts | 265° |
| 2026-05-04 19:43 | -23.07924 | -45.85486 | 3998 ft | 94 kts | 265° |
| 2026-05-04 19:43 | -23.07969 | -45.86196 | 4005 ft | 94 kts | 264° |
| 2026-05-04 19:43 | -23.08016 | -45.86902 | 4006 ft | 94 kts | 262° |
| 2026-05-04 19:44 | -23.07961 | -45.87612 | 4000 ft | 94 kts | 278° |
| 2026-05-04 19:44 | -23.07920 | -45.88311 | 4000 ft | 93 kts | 266° |
| 2026-05-04 19:44 | -23.08014 | -45.89012 | 3999 ft | 95 kts | 257° |
| 2026-05-04 19:44 | -23.08200 | -45.89695 | 4003 ft | 94 kts | 249° |
| 2026-05-04 19:45 | -23.08439 | -45.90349 | 4000 ft | 94 kts | 246° |
| 2026-05-04 19:45 | -23.08710 | -45.91002 | 3998 ft | 95 kts | 244° |
| 2026-05-04 19:45 | -23.08993 | -45.91648 | 4001 ft | 95 kts | 243° |
| 2026-05-04 19:45 | -23.09289 | -45.92288 | 4010 ft | 95 kts | 243° |
| 2026-05-04 19:46 | -23.09590 | -45.92926 | 4019 ft | 95 kts | 242° |
| 2026-05-04 19:46 | -23.09887 | -45.93553 | 4026 ft | 94 kts | 239° |
| 2026-05-04 19:46 | -23.10187 | -45.94191 | 4011 ft | 95 kts | 242° |
| 2026-05-04 19:46 | -23.10495 | -45.94826 | 3899 ft | 93 kts | 238° |
| 2026-05-04 19:47 | -23.10798 | -45.95441 | 3665 ft | 92 kts | 238° |
| 2026-05-04 19:47 | -23.11105 | -45.96063 | 3366 ft | 93 kts | 237° |
| 2026-05-04 19:47 | -23.11408 | -45.96686 | 3199 ft | 96 kts | 241° |
| 2026-05-04 19:47 | -23.11710 | -45.97333 | 3203 ft | 96 kts | 241° |
| 2026-05-04 19:48 | -23.12012 | -45.97984 | 3201 ft | 96 kts | 241° |
| 2026-05-04 19:48 | -23.12313 | -45.98628 | 3202 ft | 96 kts | 240° |
| 2026-05-04 19:48 | -23.12620 | -45.99266 | 3201 ft | 96 kts | 240° |
| 2026-05-04 19:48 | -23.12927 | -45.99907 | 3200 ft | 96 kts | 240° |
| 2026-05-04 19:49 | -23.13238 | -46.00557 | 3203 ft | 96 kts | 240° |
| 2026-05-04 19:49 | -23.13544 | -46.01195 | 3201 ft | 96 kts | 240° |
| 2026-05-04 19:49 | -23.13853 | -46.01840 | 3198 ft | 96 kts | 240° |
| 2026-05-04 19:49 | -23.14161 | -46.02486 | 3200 ft | 96 kts | 240° |
| 2026-05-04 19:50 | -23.14470 | -46.03131 | 3219 ft | 98 kts | 244° |
| 2026-05-04 19:50 | -23.14776 | -46.03801 | 3452 ft | 99 kts | 243° |
| 2026-05-04 19:50 | -23.15079 | -46.04446 | 3497 ft | 95 kts | 240° |
| 2026-05-04 19:50 | -23.15386 | -46.05084 | 3497 ft | 96 kts | 240° |
| 2026-05-04 19:51 | -23.15697 | -46.05730 | 3498 ft | 96 kts | 240° |
| 2026-05-04 19:51 | -23.16007 | -46.06370 | 3498 ft | 96 kts | 240° |
| 2026-05-04 19:51 | -23.16316 | -46.07011 | 3496 ft | 96 kts | 240° |
| 2026-05-04 19:51 | -23.16624 | -46.07651 | 3495 ft | 96 kts | 240° |
| 2026-05-04 19:52 | -23.16934 | -46.08295 | 3497 ft | 96 kts | 240° |
| 2026-05-04 19:52 | -23.17245 | -46.08940 | 3496 ft | 96 kts | 240° |
| 2026-05-04 19:52 | -23.17551 | -46.09575 | 3490 ft | 96 kts | 240° |
| 2026-05-04 19:52 | -23.17857 | -46.10214 | 3489 ft | 95 kts | 240° |
| 2026-05-04 19:53 | -23.18165 | -46.10858 | 3490 ft | 96 kts | 240° |
| 2026-05-04 19:53 | -23.18470 | -46.11497 | 3490 ft | 96 kts | 240° |
| 2026-05-04 19:53 | -23.18780 | -46.12145 | 3488 ft | 96 kts | 240° |
| 2026-05-04 19:53 | -23.19085 | -46.12786 | 3490 ft | 96 kts | 240° |
| 2026-05-04 19:54 | -23.19390 | -46.13423 | 3489 ft | 96 kts | 240° |
| 2026-05-04 19:54 | -23.19696 | -46.14064 | 3486 ft | 95 kts | 240° |
| 2026-05-04 19:54 | -23.20003 | -46.14708 | 3489 ft | 95 kts | 240° |
| 2026-05-04 19:54 | -23.20309 | -46.15348 | 3481 ft | 95 kts | 240° |
| 2026-05-04 19:55 | -23.20730 | -46.15892 | 3483 ft | 96 kts | 212° |
| 2026-05-04 19:55 | -23.21330 | -46.16193 | 3484 ft | 95 kts | 200° |
| 2026-05-04 19:55 | -23.21955 | -46.16451 | 3484 ft | 96 kts | 198° |
| 2026-05-04 19:55 | -23.22580 | -46.16703 | 3486 ft | 96 kts | 198° |
| 2026-05-04 19:56 | -23.23198 | -46.16953 | 3480 ft | 96 kts | 198° |
| 2026-05-04 19:56 | -23.23834 | -46.17203 | 3485 ft | 96 kts | 198° |
| 2026-05-04 19:56 | -23.24250 | -46.17366 | 3482 ft | 96 kts | 198° |
| 2026-05-04 19:56 | -23.25085 | -46.17694 | 3480 ft | 96 kts | 198° |
| 2026-05-04 19:57 | -23.25503 | -46.17859 | 3488 ft | 96 kts | 198° |
| 2026-05-04 19:57 | -23.26127 | -46.18104 | 3475 ft | 96 kts | 198° |
| 2026-05-04 19:57 | -23.26758 | -46.18352 | 3474 ft | 96 kts | 198° |
| 2026-05-04 19:57 | -23.27382 | -46.18598 | 3478 ft | 96 kts | 198° |
| 2026-05-04 19:58 | -23.28012 | -46.18846 | 3478 ft | 96 kts | 198° |
| 2026-05-04 19:58 | -23.28638 | -46.19092 | 3482 ft | 96 kts | 198° |
| 2026-05-04 19:58 | -23.29265 | -46.19339 | 3479 ft | 96 kts | 198° |
| 2026-05-04 19:58 | -23.29892 | -46.19585 | 3479 ft | 96 kts | 198° |
| 2026-05-04 19:59 | -23.30512 | -46.19829 | 3481 ft | 96 kts | 198° |
| 2026-05-04 19:59 | -23.31138 | -46.20076 | 3481 ft | 96 kts | 198° |
| 2026-05-04 19:59 | -23.31769 | -46.20324 | 3484 ft | 96 kts | 198° |
| 2026-05-04 19:59 | -23.32394 | -46.20582 | 3483 ft | 96 kts | 199° |
| 2026-05-04 20:00 | -23.33017 | -46.20848 | 3482 ft | 96 kts | 199° |
| 2026-05-04 20:00 | -23.33640 | -46.21114 | 3485 ft | 96 kts | 199° |
| 2026-05-04 20:00 | -23.34253 | -46.21380 | 3482 ft | 96 kts | 200° |
| 2026-05-04 20:00 | -23.34880 | -46.21653 | 3487 ft | 96 kts | 200° |
| 2026-05-04 20:01 | -23.35492 | -46.21919 | 3482 ft | 96 kts | 200° |
| 2026-05-04 20:01 | -23.36117 | -46.22191 | 3488 ft | 96 kts | 200° |
| 2026-05-04 20:01 | -23.36732 | -46.22458 | 3485 ft | 96 kts | 200° |
| 2026-05-04 20:01 | -23.37354 | -46.22729 | 3491 ft | 96 kts | 199° |
| 2026-05-04 20:02 | -23.37979 | -46.23001 | 3489 ft | 96 kts | 199° |
| 2026-05-04 20:02 | -23.38590 | -46.23267 | 3483 ft | 96 kts | 200° |
| 2026-05-04 20:02 | -23.39216 | -46.23540 | 3504 ft | 96 kts | 199° |
| 2026-05-04 20:02 | -23.39832 | -46.23808 | 3506 ft | 96 kts | 200° |
| 2026-05-04 20:03 | -23.40451 | -46.24077 | 3508 ft | 96 kts | 200° |
| 2026-05-04 20:03 | -23.41069 | -46.24346 | 3512 ft | 96 kts | 199° |
| 2026-05-04 20:03 | -23.41685 | -46.24614 | 3505 ft | 96 kts | 200° |
| 2026-05-04 20:03 | -23.42311 | -46.24887 | 3507 ft | 96 kts | 199° |
| 2026-05-04 20:04 | -23.42919 | -46.25150 | 3397 ft | 95 kts | 199° |
| 2026-05-04 20:04 | -23.43538 | -46.25421 | 3398 ft | 96 kts | 199° |
| 2026-05-04 20:04 | -23.44145 | -46.25712 | 3404 ft | 96 kts | 202° |
| 2026-05-04 20:04 | -23.44745 | -46.26033 | 3400 ft | 96 kts | 204° |
| 2026-05-04 20:05 | -23.45340 | -46.26355 | 3403 ft | 96 kts | 204° |
| 2026-05-04 20:05 | -23.45938 | -46.26679 | 3403 ft | 96 kts | 204° |
| 2026-05-04 20:05 | -23.46536 | -46.27004 | 3403 ft | 96 kts | 204° |
| 2026-05-04 20:05 | -23.47130 | -46.27326 | 3407 ft | 96 kts | 204° |
| 2026-05-04 20:06 | -23.47732 | -46.27653 | 3403 ft | 96 kts | 204° |
| 2026-05-04 20:06 | -23.48334 | -46.27980 | 3405 ft | 96 kts | 204° |
| 2026-05-04 20:06 | -23.48927 | -46.28305 | 3405 ft | 96 kts | 204° |
| 2026-05-04 20:06 | -23.49525 | -46.28633 | 3406 ft | 96 kts | 204° |
| 2026-05-04 20:07 | -23.50118 | -46.28958 | 3404 ft | 96 kts | 204° |
| 2026-05-04 20:07 | -23.50721 | -46.29288 | 3404 ft | 96 kts | 204° |
| 2026-05-04 20:07 | -23.51310 | -46.29611 | 3404 ft | 96 kts | 204° |
| 2026-05-04 20:07 | -23.51910 | -46.29939 | 3408 ft | 96 kts | 203° |
| 2026-05-04 20:08 | -23.52504 | -46.30265 | 3409 ft | 96 kts | 203° |
| 2026-05-04 20:08 | -23.53103 | -46.30597 | 3403 ft | 96 kts | 206° |
| 2026-05-04 20:08 | -23.53515 | -46.31184 | 3406 ft | 100 kts | 247° |
| 2026-05-04 20:08 | -23.53581 | -46.31914 | 3409 ft | 96 kts | 266° |
| 2026-05-04 20:09 | -23.53590 | -46.32646 | 3408 ft | 97 kts | 266° |
| 2026-05-04 20:09 | -23.53608 | -46.33384 | 3409 ft | 96 kts | 265° |
| 2026-05-04 20:09 | -23.53636 | -46.34112 | 3412 ft | 96 kts | 265° |
| 2026-05-04 20:09 | -23.53670 | -46.34840 | 3415 ft | 96 kts | 264° |
| 2026-05-04 20:10 | -23.53709 | -46.35565 | 3414 ft | 96 kts | 264° |
| 2026-05-04 20:10 | -23.53750 | -46.36292 | 3413 ft | 96 kts | 264° |
| 2026-05-04 20:10 | -23.53790 | -46.37012 | 3415 ft | 96 kts | 264° |
| 2026-05-04 20:10 | -23.53830 | -46.37746 | 3416 ft | 96 kts | 264° |
| 2026-05-04 20:11 | -23.53870 | -46.38468 | 3360 ft | 94 kts | 262° |
| 2026-05-04 20:11 | -23.53905 | -46.39187 | 3315 ft | 96 kts | 265° |
| 2026-05-04 20:11 | -23.53933 | -46.39909 | 3320 ft | 95 kts | 265° |
| 2026-05-04 20:11 | -23.53968 | -46.40638 | 3321 ft | 96 kts | 265° |
| 2026-05-04 20:12 | -23.54003 | -46.41355 | 3319 ft | 96 kts | 265° |
| 2026-05-04 20:12 | -23.54038 | -46.42087 | 3321 ft | 96 kts | 265° |
| 2026-05-04 20:12 | -23.54073 | -46.42809 | 3323 ft | 96 kts | 265° |
| 2026-05-04 20:12 | -23.54107 | -46.43531 | 3323 ft | 95 kts | 265° |
| 2026-05-04 20:13 | -23.54141 | -46.44227 | 3331 ft | 85 kts | 264° |
| 2026-05-04 20:13 | -23.54170 | -46.44850 | 3274 ft | 80 kts | 263° |
| 2026-05-04 20:13 | -23.54204 | -46.45456 | 3121 ft | 81 kts | 266° |
| 2026-05-04 20:13 | -23.54228 | -46.46064 | 3124 ft | 81 kts | 267° |
| 2026-05-04 20:14 | -23.54220 | -46.46684 | 3123 ft | 81 kts | 274° |
| 2026-05-04 20:14 | -23.54087 | -46.47274 | 3124 ft | 80 kts | 288° |
| 2026-05-04 20:14 | -23.53851 | -46.47812 | 3124 ft | 78 kts | 295° |
| 2026-05-04 20:14 | -23.53603 | -46.48343 | 3124 ft | 80 kts | 295° |
| 2026-05-04 20:15 | -23.53455 | -46.48918 | 3125 ft | 79 kts | 279° |
| 2026-05-04 20:15 | -23.53339 | -46.49504 | 3124 ft | 80 kts | 287° |
| 2026-05-04 20:15 | -23.53075 | -46.50029 | 3126 ft | 79 kts | 302° |
| 2026-05-04 20:15 | -23.52760 | -46.50520 | 3125 ft | 79 kts | 303° |
| 2026-05-04 20:16 | -23.52603 | -46.51091 | 3129 ft | 81 kts | 272° |
| 2026-05-04 20:16 | -23.52672 | -46.51696 | 3125 ft | 80 kts | 258° |
| 2026-05-04 20:16 | -23.52796 | -46.52289 | 3125 ft | 81 kts | 255° |
| 2026-05-04 20:16 | -23.52947 | -46.52876 | 3125 ft | 81 kts | 252° |
| 2026-05-04 20:17 | -23.53070 | -46.53481 | 3125 ft | 81 kts | 253° |
| 2026-05-04 20:17 | -23.53183 | -46.54084 | 3125 ft | 82 kts | 254° |
| 2026-05-04 20:17 | -23.53290 | -46.54693 | 3133 ft | 81 kts | 255° |
| 2026-05-04 20:17 | -23.53401 | -46.55298 | 3128 ft | 81 kts | 253° |
| 2026-05-04 20:18 | -23.53515 | -46.55907 | 3127 ft | 81 kts | 253° |
| 2026-05-04 20:18 | -23.53658 | -46.56499 | 3125 ft | 81 kts | 250° |
| 2026-05-04 20:18 | -23.53806 | -46.57092 | 3128 ft | 82 kts | 252° |
| 2026-05-04 20:18 | -23.53928 | -46.57699 | 3127 ft | 82 kts | 252° |
| 2026-05-04 20:19 | -23.54056 | -46.58305 | 3128 ft | 81 kts | 252° |
| 2026-05-04 20:19 | -23.54167 | -46.58900 | 3125 ft | 81 kts | 254° |
| 2026-05-04 20:19 | -23.54264 | -46.59495 | 3131 ft | 77 kts | 254° |
| 2026-05-04 20:19 | -23.54341 | -46.60059 | 3126 ft | 75 kts | 255° |
| 2026-05-04 20:20 | -23.54424 | -46.60633 | 3125 ft | 75 kts | 256° |
| 2026-05-04 20:20 | -23.54492 | -46.61193 | 3127 ft | 74 kts | 257° |
| 2026-05-04 20:20 | -23.54416 | -46.61759 | 3126 ft | 82 kts | 292° |
| 2026-05-04 20:20 | -23.53953 | -46.62095 | 3127 ft | 83 kts | 343° |
| 2026-05-04 20:21 | -23.53387 | -46.62050 | 3128 ft | 78 kts | 5° |
| 2026-05-04 20:21 | -23.52844 | -46.61964 | 3277 ft | 87 kts | 18° |
| 2026-05-04 20:21 | -23.51399 | -46.61780 | 3190 ft | 90 kts | 339° |
| 2026-05-04 20:22 | -23.51000 | -46.62194 | 3177 ft | 78 kts | 292° |
| 2026-05-04 20:22 | -23.50971 | -46.62711 | 2700 ft | 44 kts | 226° |
| 2026-05-04 20:22 | -23.51068 | -46.62802 | 2495 ft | 6 kts | 254° |
| 2026-05-04 20:22 | -23.51045 | -46.62937 | 2435 ft | 26 kts | 269° |
| 2026-05-04 20:23 | -23.51026 | -46.63112 | 2404 ft | 17 kts | 277° |
| 2026-05-04 20:23 | -23.51002 | -46.63229 | 2397 ft | 22 kts | 276° |
| 2026-05-04 20:23 | -23.50994 | -46.63395 | 2404 ft | 18 kts | 275° |
| 2026-05-04 20:23 | -23.51036 | -46.63446 | 2394 ft | 16 kts | 194° |
| 2026-05-04 20:24 | -23.51127 | -46.63433 | 2405 ft | 9 kts | 180° |
| 2026-05-04 20:24 | -23.51177 | -46.63417 | 2406 ft | 7 kts | 130° |
| 2026-05-04 20:24 | -23.51186 | -46.63389 | 2397 ft | 1 kts | 193° |
| 2026-05-04 20:24 | -23.51189 | -46.63396 | 2389 ft | 0 kts | 183° |